createdAt,value
2018-07-06T00:02:45.606Z,95540.93
2018-07-06T00:05:32.256Z,95546.03
2018-07-06T00:08:19.158Z,95542.28
2018-07-06T00:11:06.050Z,95541.21
2018-07-06T00:13:52.872Z,95534.73
2018-07-06T00:16:39.502Z,95539.58
2018-07-06T00:19:26.147Z,95540.93
2018-07-06T00:22:12.768Z,95544.72
2018-07-06T00:24:59.423Z,95550.36
2018-07-06T00:27:45.928Z,95544.97
2018-07-06T00:30:32.626Z,95546.56
2018-07-06T00:33:19.109Z,95550.11
2018-07-06T00:36:05.904Z,95550.63
2018-07-06T00:38:52.453Z,95541.46
2018-07-06T00:41:39.056Z,95549.05
2018-07-06T00:44:25.732Z,95545.78
2018-07-06T00:47:12.376Z,95547.38
2018-07-06T00:49:59.233Z,95552.52
2018-07-06T00:52:45.842Z,95552.78
2018-07-06T00:55:32.503Z,95555.48
2018-07-06T00:58:23.503Z,95549.57
2018-07-06T01:01:10.043Z,95552.80
2018-07-06T01:03:56.674Z,95550.89
2018-07-06T01:06:43.253Z,95556.55
2018-07-06T01:09:29.856Z,95557.62
2018-07-06T01:12:21.343Z,95558.97
2018-07-06T01:15:13.027Z,95561.41
2018-07-06T01:17:59.606Z,95557.65
2018-07-06T01:20:46.230Z,95560.34
2018-07-06T01:23:33.020Z,95564.09
2018-07-06T01:26:19.731Z,95531.25
2018-07-06T01:29:06.422Z,95561.94
2018-07-06T01:31:52.922Z,95565.41
2018-07-06T01:34:39.568Z,95570.02
2018-07-06T01:37:26.249Z,95567.33
2018-07-06T01:40:12.854Z,95566.55
2018-07-06T01:42:59.503Z,95565.98
2018-07-06T01:45:46.163Z,95565.16
2018-07-06T01:48:32.714Z,95554.11
2018-07-06T01:51:19.275Z,95557.89
2018-07-06T01:54:05.854Z,95557.08
2018-07-06T01:56:52.893Z,95556.23
2018-07-06T01:59:39.408Z,95556.79
2018-07-06T02:02:26.009Z,95556.27
2018-07-06T02:05:12.686Z,95558.14
2018-07-06T02:07:59.454Z,95553.81
2018-07-06T02:10:46.158Z,95553.28
2018-07-06T02:13:32.924Z,95557.58
2018-07-06T02:16:19.455Z,95554.88
2018-07-06T02:19:05.935Z,95560.54
2018-07-06T02:21:46.491Z,95557.56
2018-07-06T02:24:33.199Z,95555.40
2018-07-06T02:27:19.913Z,95554.05
2018-07-06T02:30:06.517Z,95556.22
2018-07-06T02:32:53.072Z,95566.47
2018-07-06T02:35:39.473Z,95566.75
2018-07-06T02:38:20.057Z,95561.37
2018-07-06T02:41:06.749Z,95567.56
2018-07-06T02:43:53.361Z,95568.39
2018-07-06T02:46:39.730Z,95572.15
2018-07-06T02:49:26.303Z,95569.45
2018-07-06T02:52:13.025Z,95574.84
2018-07-06T02:55:00.385Z,95572.15
2018-07-06T02:57:47.061Z,95573.49
2018-07-06T03:00:33.968Z,95571.08
2018-07-06T03:03:20.772Z,95575.38
2018-07-06T03:06:07.418Z,95576.19
2018-07-06T03:08:54.107Z,95570.02
2018-07-06T03:11:40.739Z,95577.81
2018-07-06T03:14:27.216Z,95575.41
2018-07-06T03:17:13.956Z,95574.84
2018-07-06T03:20:00.544Z,95568.92
2018-07-06T03:22:47.120Z,95561.91
2018-07-06T03:25:33.963Z,95568.63
2018-07-06T03:28:20.938Z,95558.95
2018-07-06T03:31:07.585Z,95560.59
2018-07-06T03:33:54.269Z,95563.28
2018-07-06T03:36:40.872Z,95563.56
2018-07-06T03:39:27.306Z,95569.45
2018-07-06T03:42:14.096Z,95573.53
2018-07-06T03:45:00.591Z,95574.88
2018-07-06T03:47:47.335Z,95570.02
2018-07-06T03:50:33.894Z,95570.27
2018-07-06T03:53:20.718Z,95475.58
2018-07-06T03:56:07.305Z,95586.42
2018-07-06T03:58:55.655Z,95581.58
2018-07-06T04:01:42.337Z,95588.34
2018-07-06T04:04:28.963Z,95585.08
2018-07-06T04:07:15.665Z,95588.34
2018-07-06T04:10:02.364Z,95591.56
2018-07-06T04:12:48.944Z,95591.28
2018-07-06T04:15:35.665Z,95600.18
2018-07-06T04:18:22.218Z,95597.48
2018-07-06T04:21:02.931Z,95598.30
2018-07-06T04:23:49.486Z,95602.06
2018-07-06T04:26:36.188Z,95605.03
2018-07-06T04:29:23.270Z,95606.38
2018-07-06T04:32:09.874Z,95609.88
2018-07-06T04:34:56.565Z,95603.40
2018-07-06T04:37:43.164Z,95607.47
2018-07-06T04:40:29.797Z,95618.73
2018-07-06T04:43:16.499Z,95617.14
2018-07-06T04:46:02.918Z,95620.64
2018-07-06T04:48:49.534Z,95622.23
2018-07-06T04:51:36.120Z,95620.61
2018-07-06T04:54:22.764Z,95617.96
2018-07-06T04:57:09.456Z,95613.92
2018-07-06T04:59:56.147Z,95610.95
2018-07-06T05:02:42.878Z,95626.02
2018-07-06T05:05:29.503Z,95629.81
2018-07-06T05:08:16.083Z,95623.33
2018-07-06T05:11:01.215Z,95626.55
2018-07-06T05:13:47.944Z,95636.52
2018-07-06T05:16:34.614Z,95627.62
2018-07-06T05:19:21.279Z,95631.13
2018-07-06T05:22:07.884Z,95637.58
2018-07-06T05:24:54.499Z,95637.30
2018-07-06T05:27:41.243Z,95640.80
2018-07-06T05:30:27.813Z,95639.45
2018-07-06T05:33:14.519Z,95646.97
2018-07-06T05:36:01.284Z,95647.50
2018-07-06T05:38:47.732Z,95651.30
2018-07-06T05:41:34.172Z,95652.93
2018-07-06T05:44:20.831Z,95657.22
2018-07-06T05:47:07.437Z,95652.89
2018-07-06T05:49:54.130Z,95662.61
2018-07-06T05:52:40.681Z,95659.62
2018-07-06T05:55:27.248Z,95661.78
2018-07-06T05:58:13.959Z,95661.50
2018-07-06T06:01:00.641Z,95664.19
2018-07-06T06:03:47.208Z,95667.70
2018-07-06T06:06:33.808Z,95673.34
2018-07-06T06:09:01.848Z,95676.86
2018-07-06T06:11:31.902Z,95680.91
2018-07-06T06:14:02.016Z,95674.20
2018-07-06T06:16:32.116Z,95682.01
2018-07-06T06:19:02.172Z,95683.36
2018-07-06T06:21:32.224Z,95687.15
2018-07-06T06:24:02.243Z,95690.66
2018-07-06T06:26:33.084Z,95691.97
2018-07-06T06:29:03.260Z,95698.18
2018-07-06T06:31:33.621Z,95696.02
2018-07-06T06:34:04.313Z,95670.45
2018-07-06T06:36:34.615Z,95705.98
2018-07-06T06:39:05.198Z,95708.39
2018-07-06T06:41:36.288Z,95707.86
2018-07-06T06:44:06.728Z,95711.38
2018-07-06T06:46:37.001Z,95709.50
2018-07-06T06:49:07.208Z,95713.82
2018-07-06T06:51:37.357Z,95713.26
2018-07-06T06:54:07.502Z,95717.87
2018-07-06T06:56:37.764Z,95718.65
2018-07-06T06:59:07.877Z,95719.99
2018-07-06T07:01:38.078Z,95724.56
2018-07-06T07:04:08.157Z,95728.33
2018-07-06T07:06:38.692Z,95728.33
2018-07-06T07:09:09.043Z,95724.28
2018-07-06T07:11:39.207Z,95727.26
2018-07-06T07:14:09.389Z,95726.44
2018-07-06T07:16:39.538Z,95728.88
2018-07-06T07:19:09.767Z,95729.65
2018-07-06T07:21:39.932Z,95734.52
2018-07-06T07:24:10.093Z,95735.34
2018-07-06T07:26:40.304Z,95737.21
2018-07-06T07:29:10.532Z,95730.17
2018-07-06T07:31:40.668Z,95729.37
2018-07-06T07:34:10.812Z,95736.68
2018-07-06T07:36:41.020Z,95736.92
2018-07-06T07:39:11.175Z,95732.59
2018-07-06T07:41:41.356Z,95737.98
2018-07-06T07:44:11.530Z,95739.33
2018-07-06T07:46:41.794Z,95739.84
2018-07-06T07:49:11.975Z,95743.06
2018-07-06T07:52:01.810Z,95741.95
2018-07-06T07:54:53.344Z,95749.78
2018-07-06T07:57:23.933Z,95745.44
2018-07-06T07:59:56.467Z,95741.59
2018-07-06T08:02:26.666Z,95746.12
2018-07-06T08:04:57.298Z,95751.78
2018-07-06T08:07:27.695Z,95755.53
2018-07-06T08:09:58.448Z,95758.47
2018-07-06T08:12:28.754Z,95760.34
2018-07-06T08:14:58.938Z,95764.34
2018-07-06T08:17:29.066Z,95759.66
2018-07-06T08:19:59.285Z,95761.76
2018-07-06T08:22:29.451Z,95767.62
2018-07-06T08:24:59.608Z,95765.37
2018-07-06T08:27:29.651Z,95767.95
2018-07-06T08:29:59.783Z,95776.23
2018-07-06T08:32:29.992Z,95773.22
2018-07-06T08:35:10.661Z,95783.10
2018-07-06T08:38:02.946Z,95784.36
2018-07-06T08:40:33.059Z,95774.26
2018-07-06T08:43:04.823Z,95781.74
2018-07-06T08:45:36.054Z,95796.18
2018-07-06T08:48:06.211Z,95796.18
2018-07-06T08:50:36.418Z,95788.68
2018-07-06T08:53:06.715Z,95794.70
2018-07-06T08:55:36.953Z,95798.31
2018-07-06T08:58:07.089Z,95800.67
2018-07-06T09:00:37.281Z,95803.87
2018-07-06T09:03:08.498Z,95800.10
2018-07-06T09:05:38.738Z,95804.95
2018-07-06T09:08:08.915Z,95807.93
2018-07-06T09:10:39.411Z,95808.24
2018-07-06T09:13:09.493Z,95808.66
2018-07-06T09:15:39.648Z,95803.84
2018-07-06T09:18:09.727Z,95814.23
2018-07-06T09:20:39.941Z,95820.17
2018-07-06T09:23:10.082Z,95815.86
2018-07-06T09:25:40.391Z,95820.20
2018-07-06T09:28:10.501Z,95817.59
2018-07-06T09:30:40.744Z,95817.24
2018-07-06T09:33:10.840Z,95825.62
2018-07-06T09:35:40.989Z,95826.45
2018-07-06T09:38:11.256Z,95827.71
2018-07-06T09:40:41.404Z,95823.56
2018-07-06T09:43:11.411Z,95830.89
2018-07-06T09:45:41.534Z,95827.84
2018-07-06T09:48:11.206Z,95829.72
2018-07-06T09:50:41.554Z,95831.13
2018-07-06T09:53:11.607Z,95832.16
2018-07-06T09:55:41.800Z,95831.15
2018-07-06T09:58:11.884Z,95831.16
2018-07-06T10:00:47.170Z,95822.92
2018-07-06T10:03:17.227Z,95818.92
2018-07-06T10:05:47.494Z,95819.53
2018-07-06T10:08:17.550Z,95821.50
2018-07-06T10:10:47.709Z,95819.70
2018-07-06T10:13:18.020Z,95820.45
2018-07-06T10:15:48.243Z,95825.13
2018-07-06T10:18:18.455Z,95823.77
2018-07-06T10:20:48.492Z,95817.81
2018-07-06T10:23:18.649Z,95822.47
2018-07-06T10:25:48.773Z,95831.94
2018-07-06T10:28:38.571Z,95832.14
2018-07-06T10:31:38.015Z,95828.53
2018-07-06T10:34:08.164Z,95833.36
2018-07-06T10:36:38.249Z,95834.88
2018-07-06T10:39:08.390Z,95834.17
2018-07-06T10:41:38.452Z,95832.41
2018-07-06T10:44:08.543Z,95833.58
2018-07-06T10:46:38.681Z,95828.27
2018-07-06T10:49:08.987Z,95830.68
2018-07-06T10:51:39.233Z,95834.03
2018-07-06T10:54:09.745Z,95829.78
2018-07-06T10:56:39.877Z,95831.36
2018-07-06T10:59:09.989Z,95830.11
2018-07-06T11:01:40.782Z,95826.22
2018-07-06T11:04:10.866Z,95829.69
2018-07-06T11:06:40.932Z,95831.80
2018-07-06T11:09:11.261Z,95841.42
2018-07-06T11:11:42.277Z,95843.90
2018-07-06T11:14:12.415Z,95849.77
2018-07-06T11:16:42.470Z,95853.38
2018-07-06T11:19:12.693Z,95856.86
2018-07-06T11:21:42.782Z,95858.31
2018-07-06T11:24:13.052Z,95855.28
2018-07-06T11:26:43.286Z,95850.22
2018-07-06T11:29:13.509Z,95855.92
2018-07-06T11:31:43.575Z,95853.17
2018-07-06T11:37:00.772Z,95859.95
2018-07-06T11:39:30.894Z,95863.55
2018-07-06T11:42:00.968Z,95856.50
2018-07-06T11:44:30.612Z,95858.39
2018-07-06T11:47:00.664Z,95858.72
2018-07-06T11:49:30.927Z,95858.00
2018-07-06T11:52:01.304Z,95854.05
2018-07-06T11:54:31.525Z,95855.59
2018-07-06T11:57:02.060Z,95855.74
2018-07-06T11:59:32.442Z,95846.02
2018-07-06T12:02:02.555Z,95849.02
2018-07-06T12:04:41.522Z,95854.47
2018-07-06T12:07:11.696Z,95849.08
2018-07-06T12:09:42.034Z,95851.77
2018-07-06T12:12:12.309Z,95858.97
2018-07-06T12:14:42.536Z,95852.34
2018-07-06T12:17:12.680Z,95856.91
2018-07-06T12:19:43.304Z,95856.31
2018-07-06T12:22:14.019Z,95854.09
2018-07-06T12:24:44.383Z,95850.53
2018-07-06T12:27:14.663Z,95851.62
2018-07-06T12:29:44.843Z,95847.72
2018-07-06T12:32:14.908Z,95848.51
2018-07-06T12:34:45.032Z,95852.77
2018-07-06T12:37:15.104Z,95844.05
2018-07-06T12:39:45.153Z,95847.27
2018-07-06T12:42:15.290Z,95849.00
2018-07-06T12:44:45.474Z,95848.40
2018-07-06T12:47:15.675Z,95851.62
2018-07-06T12:49:45.826Z,95848.20
2018-07-06T12:52:15.984Z,95851.35
2018-07-06T12:54:46.120Z,95861.44
2018-07-06T12:57:16.220Z,95860.03
2018-07-06T12:59:46.355Z,95856.87
2018-07-06T13:02:16.405Z,95856.14
2018-07-06T13:04:46.697Z,95844.47
2018-07-06T13:07:16.813Z,95849.23
2018-07-06T13:09:46.942Z,95846.26
2018-07-06T13:12:17.022Z,95843.14
2018-07-06T13:14:47.101Z,95843.92
2018-07-06T13:17:17.149Z,95843.62
2018-07-06T13:19:47.306Z,95843.50
2018-07-06T13:22:17.331Z,95848.92
2018-07-06T13:24:47.431Z,95844.78
2018-07-06T13:27:17.515Z,95848.72
2018-07-06T13:29:47.637Z,95847.16
2018-07-06T13:32:17.809Z,95832.58
2018-07-06T13:34:47.953Z,95842.80
2018-07-06T13:37:18.055Z,95844.32
2018-07-06T13:39:48.147Z,95845.16
2018-07-06T13:42:18.267Z,95844.32
2018-07-06T13:44:48.343Z,95843.78
2018-07-06T13:47:18.513Z,95841.57
2018-07-06T13:49:48.591Z,95842.95
2018-07-06T13:52:18.731Z,95848.88
2018-07-06T13:54:48.875Z,95851.05
2018-07-06T13:57:19.009Z,95852.83
2018-07-06T13:59:49.128Z,95851.34
2018-07-06T14:02:19.252Z,95846.03
2018-07-06T14:04:49.339Z,95849.11
2018-07-06T14:07:19.941Z,95861.67
2018-07-06T14:09:50.036Z,95855.02
2018-07-06T14:12:20.170Z,95856.60
2018-07-06T14:14:51.327Z,95861.39
2018-07-06T14:17:21.529Z,95860.22
2018-07-06T14:19:51.658Z,95853.96
2018-07-06T14:22:21.799Z,95855.02
2018-07-06T14:24:51.933Z,95855.30
2018-07-06T14:27:22.214Z,95848.31
2018-07-06T14:29:52.749Z,95854.30
2018-07-06T14:32:22.964Z,95854.27
2018-07-06T14:34:53.090Z,95854.84
2018-07-06T14:37:23.264Z,95851.81
2018-07-06T14:39:53.400Z,95854.30
2018-07-06T14:42:23.667Z,95846.84
2018-07-06T14:44:55.334Z,95847.00
2018-07-06T14:47:26.583Z,95849.48
2018-07-06T14:49:57.876Z,95848.77
2018-07-06T14:52:29.212Z,95848.63
2018-07-06T14:54:59.553Z,95842.31
2018-07-06T14:57:29.398Z,95846.80
2018-07-06T14:59:59.548Z,95848.33
2018-07-06T15:02:29.863Z,95845.61
2018-07-06T15:04:59.887Z,95835.38
2018-07-06T15:07:30.308Z,95836.94
2018-07-06T15:09:59.943Z,95837.81
2018-07-06T15:12:30.269Z,95839.17
2018-07-06T15:15:00.260Z,95831.91
2018-07-06T15:17:30.494Z,95830.00
2018-07-06T15:20:00.560Z,95826.72
2018-07-06T15:22:30.767Z,95822.10
2018-07-06T15:25:00.785Z,95828.73
2018-07-06T15:27:30.967Z,95827.17
2018-07-06T15:30:01.035Z,95829.19
2018-07-06T15:32:31.529Z,95831.19
2018-07-06T15:35:01.574Z,95832.75
2018-07-06T15:37:33.058Z,95828.47
2018-07-06T15:40:03.132Z,95828.02
2018-07-06T15:42:33.416Z,95835.67
2018-07-06T15:45:03.511Z,95829.23
2018-07-06T15:47:33.753Z,95823.17
2018-07-06T15:50:03.899Z,95826.04
2018-07-06T15:52:34.287Z,95828.91
2018-07-06T15:55:04.496Z,95831.06
2018-07-06T15:57:35.872Z,95819.50
2018-07-06T16:00:05.946Z,95814.78
2018-07-06T16:02:36.175Z,95824.23
2018-07-06T16:05:06.496Z,95834.08
2018-07-06T16:07:36.691Z,95843.78
2018-07-06T16:10:06.809Z,95838.17
2018-07-06T16:12:37.035Z,95852.64
2018-07-06T16:15:07.258Z,95858.88
2018-07-06T16:17:37.591Z,95865.33
2018-07-06T16:20:07.768Z,95874.21
2018-07-06T16:22:37.521Z,95876.67
2018-07-06T16:25:07.532Z,95878.50
2018-07-06T16:27:37.589Z,95873.34
2018-07-06T16:30:07.876Z,95872.95
2018-07-06T16:32:37.916Z,95882.13
2018-07-06T16:35:08.011Z,95898.29
2018-07-06T16:37:38.531Z,95885.30
2018-07-06T16:40:08.669Z,95884.52
2018-07-06T16:42:38.732Z,95887.80
2018-07-06T16:45:08.775Z,95884.08
2018-07-06T16:47:39.171Z,95884.11
2018-07-06T16:50:10.190Z,95877.84
2018-07-06T16:52:40.251Z,95873.45
2018-07-06T16:55:11.029Z,95884.31
2018-07-06T16:57:41.107Z,95890.05
2018-07-06T17:00:11.235Z,95883.63
2018-07-06T17:02:41.364Z,95888.20
2018-07-06T17:05:11.420Z,95882.92
2018-07-06T17:07:42.452Z,95879.41
2018-07-06T17:10:12.512Z,95877.95
2018-07-06T17:12:42.882Z,95876.25
2018-07-06T17:15:13.110Z,95886.94
2018-07-06T17:17:43.263Z,95887.64
2018-07-06T17:20:13.349Z,95887.54
2018-07-06T17:22:43.446Z,95897.48
2018-07-06T17:25:13.502Z,95887.52
2018-07-06T17:27:43.627Z,95891.26
2018-07-06T17:30:13.844Z,95904.64
2018-07-06T17:32:43.977Z,95903.33
2018-07-06T17:35:14.058Z,95903.66
2018-07-06T17:37:44.457Z,95900.92
2018-07-06T17:40:14.708Z,95906.27
2018-07-06T17:42:44.897Z,95908.66
2018-07-06T17:45:15.029Z,95894.97
2018-07-06T17:47:44.717Z,95900.13
2018-07-06T17:50:14.906Z,95904.54
2018-07-06T17:52:44.979Z,95905.05
2018-07-06T17:55:15.160Z,95905.76
2018-07-06T17:57:45.278Z,95899.77
2018-07-06T18:00:15.488Z,95908.87
2018-07-06T18:02:45.592Z,95899.58
2018-07-06T18:05:15.699Z,95902.26
2018-07-06T18:07:45.776Z,95905.16
2018-07-06T18:10:15.864Z,95903.80
2018-07-06T18:12:45.551Z,95906.45
2018-07-06T18:15:16.702Z,95905.27
2018-07-06T18:17:46.945Z,95907.73
2018-07-06T18:20:17.267Z,95909.42
2018-07-06T18:22:47.905Z,95912.48
2018-07-06T18:25:19.150Z,95912.69
2018-07-06T18:27:49.328Z,95918.48
2018-07-06T18:30:19.394Z,95912.08
2018-07-06T18:32:49.458Z,95924.08
2018-07-06T18:35:19.557Z,95921.48
2018-07-06T18:37:49.664Z,95913.25
2018-07-06T18:40:19.783Z,95922.01
2018-07-06T18:42:49.817Z,95922.17
2018-07-06T18:45:19.490Z,95922.48
2018-07-06T18:47:49.633Z,95921.48
2018-07-06T18:50:19.770Z,95931.00
2018-07-06T18:52:50.032Z,95937.80
2018-07-06T18:55:20.216Z,95933.23
2018-07-06T18:57:50.277Z,95939.46
2018-07-06T19:00:20.603Z,95938.45
2018-07-06T19:02:50.786Z,95940.70
2018-07-06T19:05:20.927Z,95947.47
2018-07-06T19:07:50.982Z,95946.67
2018-07-06T19:10:21.064Z,95958.59
2018-07-06T19:12:50.727Z,95959.17
2018-07-06T19:15:20.894Z,95968.11
2018-07-06T19:17:50.991Z,95964.03
2018-07-06T19:20:21.104Z,95958.67
2018-07-06T19:22:51.262Z,95967.84
2018-07-06T19:25:21.400Z,95969.47
2018-07-06T19:27:51.501Z,95974.61
2018-07-06T19:30:21.589Z,95990.02
2018-07-06T19:32:51.667Z,95988.92
2018-07-06T19:35:21.794Z,95997.30
2018-07-06T19:37:51.851Z,95999.73
2018-07-06T19:40:21.893Z,96009.16
2018-07-06T19:42:52.760Z,96006.99
2018-07-06T19:45:22.917Z,96010.23
2018-07-06T19:47:52.917Z,96011.59
2018-07-06T19:50:23.891Z,96016.98
2018-07-06T19:52:54.027Z,96019.68
2018-07-06T19:55:24.216Z,96028.85
2018-07-06T19:57:54.376Z,96028.31
2018-07-06T20:00:24.426Z,96033.44
2018-07-06T20:02:54.548Z,96032.61
2018-07-06T20:05:24.853Z,96035.57
2018-07-06T20:07:54.988Z,96045.28
2018-07-06T20:10:25.140Z,96048.47
2018-07-06T20:12:55.220Z,96051.70
2018-07-06T20:15:25.345Z,96049.54
2018-07-06T20:17:55.379Z,96060.56
2018-07-06T20:20:25.498Z,96057.30
2018-07-06T20:22:55.746Z,96060.54
2018-07-06T20:25:25.950Z,96066.19
2018-07-06T20:27:55.979Z,96066.44
2018-07-06T20:30:26.083Z,96076.95
2018-07-06T20:32:56.130Z,96076.97
2018-07-06T20:35:26.232Z,96086.11
2018-07-06T20:37:56.619Z,96083.17
2018-07-06T20:40:26.764Z,96078.27
2018-07-06T20:42:56.851Z,96088.22
2018-07-06T20:45:26.967Z,96090.91
2018-07-06T20:47:57.016Z,96090.37
2018-07-06T20:50:27.067Z,96088.20
2018-07-06T20:52:57.201Z,96091.70
2018-07-06T20:55:27.296Z,96086.31
2018-07-06T20:57:57.437Z,96086.82
2018-07-06T21:00:27.652Z,96085.98
2018-07-06T21:02:58.006Z,96089.22
2018-07-06T21:05:28.087Z,96091.37
2018-07-06T21:07:58.333Z,96102.92
2018-07-06T21:10:28.378Z,96099.70
2018-07-06T21:12:58.483Z,96101.23
2018-07-06T21:15:28.588Z,96095.87
2018-07-06T21:17:58.673Z,96096.95
2018-07-06T21:20:28.306Z,96103.12
2018-07-06T21:22:58.375Z,96099.61
2018-07-06T21:25:28.412Z,96104.14
2018-07-06T21:27:58.525Z,96074.93
2018-07-06T21:30:28.605Z,96101.97
2018-07-06T21:32:58.673Z,96103.30
2018-07-06T21:35:28.740Z,96104.89
2018-07-06T21:37:58.825Z,96112.66
2018-07-06T21:40:28.896Z,96109.65
2018-07-06T21:42:58.973Z,96106.91
2018-07-06T21:45:28.616Z,96113.91
2018-07-06T21:47:58.706Z,96112.02
2018-07-06T21:50:28.759Z,96110.66
2018-07-06T21:52:58.819Z,96110.62
2018-07-06T21:55:28.943Z,96114.41
2018-07-06T21:57:59.101Z,96112.54
2018-07-06T22:00:36.599Z,96120.62
2018-07-06T22:03:07.509Z,96119.77
2018-07-06T22:05:38.034Z,96116.53
2018-07-06T22:08:08.566Z,96120.87
2018-07-06T22:10:39.125Z,96121.41
2018-07-06T22:13:09.222Z,96123.06
2018-07-06T22:15:44.418Z,96121.41
2018-07-06T22:18:17.119Z,96118.14
2018-07-06T22:20:48.202Z,96123.79
2018-07-06T22:23:18.488Z,96126.75
2018-07-06T22:25:48.546Z,96120.26
2018-07-06T22:28:18.766Z,96121.31
2018-07-06T22:30:48.863Z,96124.53
2018-07-06T22:33:19.140Z,96126.44
2018-07-06T22:35:49.233Z,96125.06
2018-07-06T22:38:19.472Z,96126.09
2018-07-06T22:40:49.547Z,96129.02
2018-07-06T22:43:19.685Z,96119.90
2018-07-06T22:45:49.768Z,96125.25
2018-07-06T22:48:20.018Z,96130.38
2018-07-06T22:50:50.082Z,96126.59
2018-07-06T22:53:20.324Z,96122.83
2018-07-06T22:55:50.449Z,96126.86
2018-07-06T22:58:20.676Z,96131.08
2018-07-06T23:00:50.378Z,96130.34
2018-07-06T23:03:20.543Z,96129.77
2018-07-06T23:05:50.569Z,96131.41
2018-07-06T23:08:21.020Z,96129.45
2018-07-06T23:10:51.138Z,96127.81
2018-07-06T23:13:21.406Z,96128.92
2018-07-06T23:15:51.460Z,96118.69
2018-07-06T23:18:21.684Z,96124.01
2018-07-06T23:20:51.766Z,96124.74
2018-07-06T23:23:21.842Z,96125.59
2018-07-06T23:25:51.903Z,96127.73
2018-07-06T23:28:22.028Z,96125.83
2018-07-06T23:30:52.074Z,96132.55
2018-07-06T23:33:22.136Z,96134.39
2018-07-06T23:35:52.210Z,96132.26
2018-07-06T23:38:22.425Z,96127.17
2018-07-06T23:40:52.432Z,96130.86
2018-07-06T23:43:22.543Z,96128.95
2018-07-06T23:45:52.591Z,96124.66
2018-07-06T23:48:22.678Z,96132.44
2018-07-06T23:50:52.765Z,96131.09
2018-07-06T23:53:22.923Z,96131.59
2018-07-06T23:55:53.011Z,96139.85
2018-07-06T23:58:22.686Z,96127.13
